createdAt,value
2023-01-03T00:00:28.130Z,1.08
2023-01-03T00:02:31.121Z,1.48
2023-01-03T00:04:33.789Z,1.60
2023-01-03T00:06:38.673Z,1.13
2023-01-03T00:08:41.252Z,1.10
2023-01-03T00:10:45.169Z,1.00
2023-01-03T00:12:46.802Z,1.23
2023-01-03T00:16:52.634Z,0.90
2023-01-03T00:18:55.255Z,1.02
2023-01-03T00:21:04.267Z,1.10
2023-01-03T00:23:06.844Z,1.10
2023-01-03T00:25:09.986Z,1.13
2023-01-03T00:27:15.121Z,1.17
2023-01-03T00:29:17.773Z,0.88
2023-01-03T00:31:20.723Z,1.20
2023-01-03T00:33:23.307Z,1.10
2023-01-03T00:35:25.834Z,1.20
2023-01-03T00:37:28.444Z,1.13
2023-01-03T00:39:31.167Z,1.00
2023-01-03T00:41:33.789Z,1.20
2023-01-03T00:43:38.505Z,1.10
2023-01-03T00:45:41.051Z,1.40
2023-01-03T00:47:43.585Z,1.13
2023-01-03T00:49:46.111Z,1.20
2023-01-03T00:51:48.712Z,1.40
2023-01-03T00:53:56.125Z,1.40
2023-01-03T00:56:03.588Z,1.10
2023-01-03T00:58:06.164Z,1.00
2023-01-03T01:00:11.682Z,1.00
2023-01-03T01:02:14.446Z,1.27
2023-01-03T01:04:19.175Z,1.35
2023-01-03T01:06:23.358Z,1.50
2023-01-03T01:08:25.953Z,0.77
2023-01-03T01:10:28.502Z,0.90
2023-01-03T01:12:30.995Z,0.90
2023-01-03T01:14:34.007Z,0.70
2023-01-03T01:16:38.002Z,0.90
2023-01-03T01:18:43.344Z,1.13
2023-01-03T01:20:47.029Z,1.10
2023-01-03T01:22:49.564Z,0.98
2023-01-03T01:24:52.124Z,0.95
2023-01-03T01:26:54.823Z,1.15
2023-01-03T01:28:57.411Z,1.05
2023-01-03T01:31:00.306Z,0.88
2023-01-03T01:33:04.435Z,0.95
2023-01-03T01:35:07.381Z,0.80
2023-01-03T01:37:10.107Z,0.70
2023-01-03T01:39:14.817Z,1.10
2023-01-03T01:41:39.427Z,0.82
2023-01-03T01:44:15.933Z,0.88
2023-01-03T01:46:23.588Z,0.80
2023-01-03T01:48:27.657Z,1.10
2023-01-03T01:50:41.136Z,1.02
2023-01-03T01:52:49.471Z,0.98
2023-01-03T01:54:54.453Z,0.98
2023-01-03T01:56:58.588Z,0.70
2023-01-03T01:59:02.054Z,0.90
2023-01-03T02:01:06.101Z,0.85
2023-01-03T02:03:09.156Z,1.10
2023-01-03T02:05:13.651Z,0.85
2023-01-03T02:07:17.029Z,1.00
2023-01-03T02:09:19.675Z,1.00
2023-01-03T02:11:33.225Z,1.00
2023-01-03T02:13:48.533Z,0.98
2023-01-03T02:16:03.420Z,0.80
2023-01-03T02:18:22.425Z,0.80
2023-01-03T02:20:47.061Z,1.10
2023-01-03T02:23:21.536Z,1.30
2023-01-03T02:25:57.514Z,1.10
2023-01-03T02:28:47.872Z,1.00
2023-01-03T02:30:55.761Z,0.80
2023-01-03T02:33:07.859Z,0.98
2023-01-03T02:35:19.334Z,0.75
2023-01-03T02:37:30.171Z,0.93
2023-01-03T02:39:41.269Z,0.98
2023-01-03T02:41:47.089Z,1.27
2023-01-03T02:43:54.710Z,1.08
2023-01-03T02:46:05.420Z,1.25
2023-01-03T02:48:13.516Z,0.82
2023-01-03T02:50:16.620Z,0.82
2023-01-03T02:52:23.727Z,0.85
2023-01-03T02:54:32.139Z,0.90
2023-01-03T02:56:39.199Z,1.00
2023-01-03T02:58:47.280Z,1.25
2023-01-03T03:00:55.275Z,0.95
2023-01-03T03:03:03.843Z,1.00
2023-01-03T03:05:09.631Z,0.95
2023-01-03T03:07:17.623Z,0.80
2023-01-03T03:09:20.203Z,1.00
2023-01-03T03:11:42.177Z,1.20
2023-01-03T03:13:47.008Z,0.90
2023-01-03T03:15:57.006Z,0.77
2023-01-03T03:18:07.873Z,1.00
2023-01-03T03:20:33.097Z,1.08
2023-01-03T03:22:58.097Z,0.98
2023-01-03T03:25:04.101Z,0.80
2023-01-03T03:27:27.470Z,1.02
2023-01-03T03:29:30.893Z,1.20
2023-01-03T03:31:36.235Z,1.02
2023-01-03T03:33:47.879Z,1.02
2023-01-03T03:35:54.968Z,1.35
2023-01-03T03:37:59.058Z,1.10
2023-01-03T03:40:19.680Z,0.88
2023-01-03T03:42:45.260Z,1.00
2023-01-03T03:45:02.910Z,1.52
2023-01-03T03:47:11.696Z,0.90
2023-01-03T03:49:39.857Z,0.95
2023-01-03T03:51:46.724Z,1.00
2023-01-03T03:53:51.402Z,1.00
2023-01-03T03:55:57.732Z,1.17
2023-01-03T03:58:04.536Z,1.00
2023-01-03T04:00:11.051Z,1.30
2023-01-03T04:02:16.545Z,1.05
2023-01-03T04:04:28.305Z,0.73
2023-01-03T04:06:33.259Z,1.38
2023-01-03T04:08:35.925Z,1.02
2023-01-03T04:10:39.124Z,1.10
2023-01-03T04:12:41.659Z,1.10
2023-01-03T04:14:44.189Z,1.00
2023-01-03T04:16:46.791Z,1.00
2023-01-03T04:18:49.431Z,0.90
2023-01-03T04:20:53.354Z,1.17
2023-01-03T04:22:55.938Z,0.90
2023-01-03T04:24:58.519Z,1.33
2023-01-03T04:27:01.138Z,1.20
2023-01-03T04:29:03.704Z,1.10
2023-01-03T04:31:06.578Z,2.03
2023-01-03T04:33:09.263Z,2.08
2023-01-03T04:35:11.872Z,1.67
2023-01-03T04:37:15.869Z,2.10
2023-01-03T04:39:18.490Z,2.45
2023-01-03T04:41:21.078Z,2.40
2023-01-03T04:43:41.110Z,2.28
2023-01-03T04:45:43.685Z,2.20
2023-01-03T04:47:46.341Z,2.00
2023-01-03T04:49:49.252Z,1.85
2023-01-03T04:51:51.773Z,2.22
2023-01-03T04:53:58.895Z,1.83
2023-01-03T04:56:01.512Z,1.80
2023-01-03T04:58:04.070Z,1.63
2023-01-03T05:00:08.662Z,1.63
2023-01-03T05:02:11.469Z,1.77
2023-01-03T05:04:14.205Z,2.28
2023-01-03T05:06:17.682Z,4.18
2023-01-03T05:08:20.255Z,1.70
2023-01-03T05:10:24.159Z,1.55
2023-01-03T05:12:27.000Z,2.10
2023-01-03T05:14:29.580Z,1.42
2023-01-03T05:16:32.161Z,1.70
2023-01-03T05:18:35.597Z,2.00
2023-01-03T05:20:56.090Z,1.35
2023-01-03T05:23:16.159Z,2.10
2023-01-03T05:25:36.495Z,1.90
2023-01-03T05:27:40.699Z,1.77
2023-01-03T05:29:44.101Z,1.90
2023-01-03T05:31:46.853Z,1.95
2023-01-03T05:33:49.591Z,1.80
2023-01-03T05:35:52.154Z,2.17
2023-01-03T05:37:54.804Z,1.95
2023-01-03T05:39:57.364Z,1.70
2023-01-03T05:42:02.470Z,1.77
2023-01-03T05:44:06.465Z,2.10
2023-01-03T05:46:09.062Z,1.88
2023-01-03T05:48:11.695Z,2.10
2023-01-03T05:50:14.257Z,2.10
2023-01-03T05:52:16.796Z,2.00
2023-01-03T05:54:21.197Z,2.38
2023-01-03T05:56:23.836Z,2.00
2023-01-03T05:58:26.366Z,2.05
2023-01-03T06:00:30.525Z,2.03
2023-01-03T06:02:33.175Z,2.20
2023-01-03T06:04:35.791Z,2.50
2023-01-03T06:06:38.418Z,2.42
2023-01-03T06:08:41.299Z,2.40
2023-01-03T06:10:43.814Z,3.05
2023-01-03T06:12:46.534Z,2.40
2023-01-03T06:14:49.058Z,2.20
2023-01-03T06:17:10.730Z,2.30
2023-01-03T06:19:13.423Z,2.75
2023-01-03T06:21:16.038Z,2.60
2023-01-03T06:23:18.534Z,2.42
2023-01-03T06:25:21.182Z,2.28
2023-01-03T06:27:23.772Z,2.30
2023-01-03T06:29:26.293Z,2.33
2023-01-03T06:31:29.164Z,2.60
2023-01-03T06:33:33.502Z,2.30
2023-01-03T06:35:36.021Z,2.78
2023-01-03T06:37:38.684Z,2.13
2023-01-03T06:39:41.264Z,2.38
2023-01-03T06:41:43.827Z,2.22
2023-01-03T06:43:46.856Z,2.30
2023-01-03T06:46:06.981Z,2.30
2023-01-03T06:48:28.156Z,2.50
2023-01-03T06:50:49.550Z,2.57
2023-01-03T06:53:09.481Z,3.00
2023-01-03T06:55:12.063Z,2.60
2023-01-03T06:57:27.004Z,2.60
2023-01-03T06:59:30.441Z,3.53
2023-01-03T07:01:33.119Z,2.80
2023-01-03T07:03:38.447Z,3.40
2023-01-03T07:05:42.332Z,2.67
2023-01-03T07:07:45.457Z,2.63
2023-01-03T07:09:47.996Z,2.65
2023-01-03T07:11:50.785Z,2.83
2023-01-03T07:13:58.381Z,2.40
2023-01-03T07:16:01.062Z,2.75
2023-01-03T07:18:03.647Z,3.05
2023-01-03T07:20:07.175Z,2.92
2023-01-03T07:22:11.065Z,2.80
2023-01-03T07:24:18.531Z,2.83
2023-01-03T07:26:21.472Z,2.85
2023-01-03T07:28:24.082Z,2.72
2023-01-03T07:30:26.708Z,2.50
2023-01-03T07:32:29.310Z,2.75
2023-01-03T07:34:31.898Z,2.40
2023-01-03T07:36:34.475Z,2.50
2023-01-03T07:38:39.120Z,3.00
2023-01-03T07:40:41.729Z,2.72
2023-01-03T07:43:01.676Z,2.55
2023-01-03T07:45:04.794Z,3.03
2023-01-03T07:47:07.456Z,2.70
2023-01-03T07:49:12.128Z,2.90
2023-01-03T07:51:16.802Z,3.42
2023-01-03T07:53:19.340Z,2.60
2023-01-03T07:55:23.236Z,3.08
2023-01-03T07:57:25.749Z,3.10
2023-01-03T07:59:28.418Z,2.92
2023-01-03T08:01:31.216Z,2.70
2023-01-03T08:03:34.370Z,2.78
2023-01-03T08:05:37.380Z,2.65
2023-01-03T08:07:39.954Z,3.00
2023-01-03T08:10:00.207Z,3.03
2023-01-03T08:12:21.770Z,2.90
2023-01-03T08:14:26.792Z,3.17
2023-01-03T08:16:29.986Z,3.60
2023-01-03T08:18:32.554Z,3.03
2023-01-03T08:20:35.123Z,3.10
2023-01-03T08:22:37.699Z,3.00
2023-01-03T08:24:40.251Z,3.70
2023-01-03T08:26:42.795Z,2.38
2023-01-03T08:28:46.718Z,2.70
2023-01-03T08:30:50.955Z,2.55
2023-01-03T08:32:56.063Z,2.72
2023-01-03T08:34:59.971Z,2.80
2023-01-03T08:37:07.749Z,3.33
2023-01-03T08:39:14.221Z,4.00
2023-01-03T08:41:21.327Z,3.50
2023-01-03T08:43:24.001Z,3.85
2023-01-03T08:45:28.853Z,4.70
2023-01-03T08:47:31.658Z,4.90
2023-01-03T08:49:34.277Z,5.47
2023-01-03T08:51:36.806Z,3.95
2023-01-03T08:53:39.486Z,5.03
2023-01-03T08:55:42.089Z,4.75
2023-01-03T08:57:44.748Z,4.28
2023-01-03T08:59:47.311Z,4.43
2023-01-03T09:01:51.393Z,3.95
2023-01-03T09:03:54.327Z,3.92
2023-01-03T09:06:00.866Z,4.00
2023-01-03T09:08:03.403Z,4.22
2023-01-03T09:10:06.922Z,4.45
2023-01-03T09:12:09.489Z,3.90
2023-01-03T09:14:12.049Z,4.10
2023-01-03T09:16:16.469Z,4.15
2023-01-03T09:18:20.548Z,4.22
2023-01-03T09:20:23.300Z,4.28
2023-01-03T09:22:25.974Z,4.13
2023-01-03T09:24:28.506Z,3.92
2023-01-03T09:26:31.112Z,4.35
2023-01-03T09:28:33.654Z,4.28
2023-01-03T09:30:36.255Z,4.05
2023-01-03T09:32:38.887Z,4.07
2023-01-03T09:34:42.782Z,4.18
2023-01-03T09:36:45.338Z,4.15
2023-01-03T09:38:48.081Z,4.35
2023-01-03T09:40:59.224Z,4.47
2023-01-03T09:43:13.911Z,4.03
2023-01-03T09:45:21.264Z,4.28
2023-01-03T09:47:26.258Z,3.85
2023-01-03T09:49:28.905Z,3.17
2023-01-03T09:51:54.013Z,3.28
2023-01-03T09:54:15.458Z,3.17
2023-01-03T09:56:38.427Z,3.50
2023-01-03T09:59:00.279Z,3.10
2023-01-03T10:01:32.528Z,3.60
2023-01-03T10:03:52.615Z,3.80
2023-01-03T10:06:07.848Z,3.47
2023-01-03T10:08:23.189Z,2.90
2023-01-03T10:10:33.023Z,3.20
2023-01-03T10:12:45.651Z,3.40
2023-01-03T10:15:01.794Z,3.42
2023-01-03T10:17:17.673Z,3.70
2023-01-03T10:19:43.158Z,3.25
2023-01-03T10:21:53.126Z,3.00
2023-01-03T10:23:57.105Z,2.53
2023-01-03T10:26:00.194Z,2.60
2023-01-03T10:28:11.350Z,2.63
2023-01-03T10:30:18.761Z,3.17
2023-01-03T10:32:40.340Z,3.47
2023-01-03T10:34:42.912Z,2.88
2023-01-03T10:36:45.494Z,2.65
2023-01-03T10:38:52.957Z,2.60
2023-01-03T10:40:59.141Z,2.50
2023-01-03T10:43:09.473Z,2.45
2023-01-03T10:45:15.353Z,2.45
2023-01-03T10:47:18.693Z,2.40
2023-01-03T10:49:31.248Z,2.60
2023-01-03T10:51:42.535Z,2.72
2023-01-03T10:53:45.722Z,2.40
2023-01-03T10:55:51.615Z,2.58
2023-01-03T10:58:03.931Z,2.00
2023-01-03T11:00:29.021Z,2.30
2023-01-03T11:02:31.669Z,2.25
2023-01-03T11:04:35.366Z,2.33
2023-01-03T11:06:38.025Z,2.40
2023-01-03T11:08:45.461Z,2.88
2023-01-03T11:10:55.342Z,2.80
2023-01-03T11:12:59.438Z,2.47
2023-01-03T11:15:15.384Z,2.50
2023-01-03T11:17:21.059Z,1.85
2023-01-03T11:19:27.764Z,4.10
2023-01-03T11:21:37.927Z,4.10
2023-01-03T11:24:02.484Z,3.88
2023-01-03T11:26:18.235Z,2.67
2023-01-03T11:28:56.553Z,2.13
2023-01-03T11:31:07.088Z,1.73
2023-01-03T11:33:29.288Z,2.20
2023-01-03T11:35:46.246Z,2.20
2023-01-03T11:37:57.735Z,2.30
2023-01-03T11:40:14.113Z,1.70
2023-01-03T11:42:33.560Z,2.08
2023-01-03T11:45:05.475Z,1.88
2023-01-03T11:47:21.861Z,1.58
2023-01-03T11:49:34.460Z,1.63
2023-01-03T11:51:46.237Z,1.90
2023-01-03T11:54:00.943Z,1.42
2023-01-03T11:56:15.727Z,1.40
2023-01-03T11:58:43.649Z,1.50
2023-01-03T12:00:56.063Z,1.50
2023-01-03T12:03:23.634Z,1.27
2023-01-03T12:05:47.697Z,1.33
2023-01-03T12:08:01.300Z,1.30
2023-01-03T12:10:15.035Z,1.45
2023-01-03T12:12:34.306Z,1.20
2023-01-03T12:14:41.065Z,1.52
2023-01-03T12:16:48.720Z,1.33
2023-01-03T12:18:59.291Z,1.58
2023-01-03T12:21:08.451Z,1.50
2023-01-03T12:23:19.607Z,1.20
2023-01-03T12:25:28.781Z,1.30
2023-01-03T12:27:36.588Z,1.20
2023-01-03T12:29:50.441Z,1.60
2023-01-03T12:31:58.992Z,1.60
2023-01-03T12:34:18.443Z,1.10
2023-01-03T12:36:28.734Z,1.50
2023-01-03T12:38:33.849Z,1.70
2023-01-03T12:40:45.008Z,1.70
2023-01-03T12:42:58.250Z,2.13
2023-01-03T12:45:24.700Z,2.55
2023-01-03T12:47:35.575Z,1.92
2023-01-03T12:49:45.080Z,1.50
2023-01-03T12:51:47.648Z,1.63
2023-01-03T12:53:55.994Z,1.48
2023-01-03T12:56:21.642Z,1.20
2023-01-03T12:58:39.559Z,1.73
2023-01-03T13:00:54.570Z,1.67
2023-01-03T13:03:02.998Z,0.90
2023-01-03T13:05:19.835Z,1.00
2023-01-03T13:07:25.890Z,0.88
2023-01-03T13:09:32.989Z,1.00
2023-01-03T13:11:38.693Z,0.95
2023-01-03T13:13:54.263Z,0.90
2023-01-03T13:15:57.058Z,1.08
2023-01-03T13:18:19.773Z,1.02
2023-01-03T13:20:37.097Z,1.10
2023-01-03T13:22:52.397Z,1.55
2023-01-03T13:24:55.081Z,0.90
2023-01-03T13:27:37.960Z,1.02
2023-01-03T13:29:45.530Z,1.10
2023-01-03T13:32:04.600Z,1.58
2023-01-03T13:34:32.978Z,1.45
2023-01-03T13:37:17.873Z,1.20
2023-01-03T13:39:38.853Z,0.98
2023-01-03T13:41:42.021Z,1.83
2023-01-03T13:43:49.507Z,1.00
2023-01-03T13:45:55.165Z,1.40
2023-01-03T13:47:59.285Z,1.13
2023-01-03T13:50:01.923Z,1.20
2023-01-03T13:52:07.051Z,1.00
2023-01-03T13:54:34.591Z,0.95
2023-01-03T13:57:02.321Z,1.13
2023-01-03T13:59:19.404Z,1.55
2023-01-03T14:01:39.395Z,1.40
2023-01-03T14:04:03.200Z,1.30
2023-01-03T14:06:15.189Z,1.35
2023-01-03T14:08:35.175Z,1.23
2023-01-03T14:11:00.027Z,1.38
2023-01-03T14:13:28.383Z,1.27
2023-01-03T14:15:33.792Z,1.40
2023-01-03T14:17:38.681Z,1.20
2023-01-03T14:19:50.761Z,1.10
2023-01-03T14:22:04.839Z,1.20
2023-01-03T14:24:28.234Z,1.10
2023-01-03T14:26:32.903Z,1.40
2023-01-03T14:28:35.661Z,1.02
2023-01-03T14:30:38.223Z,1.40
2023-01-03T14:32:40.936Z,1.17
2023-01-03T14:34:43.585Z,1.40
2023-01-03T14:36:46.952Z,1.27
2023-01-03T14:38:51.426Z,1.10
2023-01-03T14:40:55.828Z,1.25
2023-01-03T14:42:58.395Z,1.20
2023-01-03T14:45:02.627Z,1.30
2023-01-03T14:47:09.079Z,1.23
2023-01-03T14:49:21.357Z,1.42
2023-01-03T14:51:24.375Z,1.27
2023-01-03T14:53:27.726Z,1.20
2023-01-03T14:55:32.326Z,1.30
2023-01-03T14:57:39.535Z,1.60
2023-01-03T14:59:42.325Z,1.60
2023-01-03T15:01:46.041Z,1.40
2023-01-03T15:03:50.610Z,1.50
2023-01-03T15:05:55.472Z,1.80
2023-01-03T15:08:09.693Z,1.60
2023-01-03T15:10:19.352Z,1.60
2023-01-03T15:12:21.914Z,1.90
2023-01-03T15:14:28.067Z,1.92
2023-01-03T15:16:33.630Z,1.83
2023-01-03T15:18:38.297Z,2.55
2023-01-03T15:20:44.792Z,2.40
2023-01-03T15:22:47.847Z,3.00
2023-01-03T15:24:54.165Z,3.30
2023-01-03T15:26:58.846Z,3.08
2023-01-03T15:29:08.571Z,3.13
2023-01-03T15:31:28.560Z,4.03
2023-01-03T15:33:33.546Z,6.38
2023-01-03T15:35:39.061Z,5.78
2023-01-03T15:37:41.690Z,6.43
2023-01-03T15:39:46.708Z,5.90
2023-01-03T15:44:31.591Z,7.78
2023-01-03T15:46:36.136Z,8.65
2023-01-03T15:48:38.953Z,6.82
2023-01-03T15:50:44.829Z,7.97
2023-01-03T15:52:47.509Z,8.93
2023-01-03T15:54:50.058Z,11.65
2023-01-03T15:56:59.671Z,15.23
2023-01-03T15:59:07.945Z,13.15
2023-01-03T16:01:11.877Z,12.27
2023-01-03T16:03:18.592Z,22.73
2023-01-03T16:05:23.320Z,16.75
2023-01-03T16:07:26.859Z,11.23
2023-01-03T16:09:29.385Z,14.88
2023-01-03T16:11:34.559Z,13.45
2023-01-03T16:13:40.962Z,10.02
2023-01-03T16:15:43.900Z,8.15
2023-01-03T16:17:46.678Z,8.27
2023-01-03T16:19:50.687Z,7.95
2023-01-03T16:22:32.684Z,8.02
2023-01-03T16:24:19.910Z,7.00
2023-01-03T16:26:22.439Z,6.95
2023-01-03T16:28:26.164Z,6.53
2023-01-03T16:30:28.739Z,7.45
2023-01-03T16:32:31.804Z,7.40
2023-01-03T16:34:36.822Z,7.40
2023-01-03T16:36:44.397Z,8.73
2023-01-03T16:38:46.940Z,8.18
2023-01-03T16:40:49.473Z,8.20
2023-01-03T16:42:52.015Z,7.68
2023-01-03T16:44:57.971Z,11.07
2023-01-03T16:47:01.188Z,10.95
2023-01-03T16:49:04.064Z,10.60
2023-01-03T16:51:07.183Z,10.88
2023-01-03T16:53:14.144Z,9.80
2023-01-03T16:55:21.489Z,10.18
2023-01-03T16:57:24.058Z,9.38
2023-01-03T16:59:26.647Z,9.45
2023-01-03T17:01:29.325Z,9.70
2023-01-03T17:03:36.647Z,8.93
2023-01-03T17:05:42.463Z,8.45
2023-01-03T17:07:47.349Z,9.05
2023-01-03T17:09:52.503Z,8.02
2023-01-03T17:11:55.068Z,7.95
2023-01-03T17:14:01.232Z,8.65
2023-01-03T17:16:05.653Z,7.35
2023-01-03T17:18:18.342Z,7.85
2023-01-03T17:20:22.430Z,7.88
2023-01-03T17:22:24.993Z,6.40
2023-01-03T17:24:29.201Z,7.50
2023-01-03T17:26:34.976Z,6.40
2023-01-03T17:28:37.544Z,20.33
2023-01-03T17:30:40.259Z,14.05
2023-01-03T17:32:44.517Z,9.13
2023-01-03T17:34:47.206Z,8.85
2023-01-03T17:36:49.802Z,8.13
2023-01-03T17:38:53.219Z,7.20
2023-01-03T17:40:57.236Z,7.47
2023-01-03T17:43:01.302Z,7.40
2023-01-03T17:45:21.674Z,7.65
2023-01-03T17:47:42.566Z,9.75
2023-01-03T17:49:45.079Z,11.00
2023-01-03T17:51:47.625Z,11.10
2023-01-03T17:53:51.305Z,11.10
2023-01-03T17:55:53.903Z,10.02
2023-01-03T17:57:57.555Z,10.80
2023-01-03T18:00:01.503Z,9.32
2023-01-03T18:02:18.125Z,8.45
2023-01-03T18:04:21.053Z,7.85
2023-01-03T18:06:26.628Z,7.22
2023-01-03T18:08:29.196Z,7.55
2023-01-03T18:10:40.121Z,8.38
2023-01-03T18:12:48.199Z,8.35
2023-01-03T18:14:51.068Z,8.27
2023-01-03T18:16:55.407Z,9.10
2023-01-03T18:18:58.096Z,9.32
2023-01-03T18:21:00.832Z,9.23
2023-01-03T18:23:03.396Z,7.75
2023-01-03T18:25:07.017Z,8.00
2023-01-03T18:27:10.578Z,7.13
2023-01-03T18:29:15.439Z,7.40
2023-01-03T18:31:19.966Z,7.20
2023-01-03T18:33:24.021Z,7.93
2023-01-03T18:35:32.420Z,8.43
2023-01-03T18:37:38.512Z,7.43
2023-01-03T18:39:41.274Z,8.13
2023-01-03T18:41:45.804Z,8.10
2023-01-03T18:43:48.358Z,8.18
2023-01-03T18:45:51.884Z,8.27
2023-01-03T18:47:54.939Z,7.55
2023-01-03T18:49:58.865Z,8.95
2023-01-03T18:52:01.413Z,10.93
2023-01-03T18:54:04.035Z,9.10
2023-01-03T18:56:07.997Z,9.10
2023-01-03T18:58:21.397Z,8.52
2023-01-03T19:00:27.583Z,9.13
2023-01-03T19:02:30.932Z,9.70
2023-01-03T19:04:33.634Z,8.73
2023-01-03T19:06:43.233Z,9.40
2023-01-03T19:08:46.056Z,7.85
2023-01-03T19:10:48.806Z,8.73
2023-01-03T19:12:53.056Z,8.68
2023-01-03T19:14:56.046Z,9.80
2023-01-03T19:16:58.673Z,8.68
2023-01-03T19:19:01.799Z,9.68
2023-01-03T19:21:07.110Z,9.13
2023-01-03T19:23:16.980Z,9.45
2023-01-03T19:25:25.937Z,10.13
2023-01-03T19:27:38.074Z,10.07
2023-01-03T19:29:40.895Z,9.02
2023-01-03T19:31:46.942Z,10.20
2023-01-03T19:33:49.599Z,8.88
2023-01-03T19:35:52.150Z,9.27
2023-01-03T19:37:54.709Z,8.43
2023-01-03T19:40:01.557Z,9.07
2023-01-03T19:42:22.220Z,8.20
2023-01-03T19:44:25.845Z,7.85
2023-01-03T19:46:29.067Z,8.48
2023-01-03T19:48:31.691Z,8.75
2023-01-03T19:50:35.893Z,8.13
2023-01-03T19:52:38.464Z,7.93
2023-01-03T19:54:40.996Z,8.98
2023-01-03T19:56:45.569Z,9.50
2023-01-03T19:58:48.632Z,8.82
2023-01-03T20:00:51.826Z,8.85
2023-01-03T20:02:57.576Z,9.00
2023-01-03T20:05:00.821Z,9.10
2023-01-03T20:07:03.773Z,9.85
2023-01-03T20:09:06.301Z,8.27
2023-01-03T20:11:16.397Z,9.68
2023-01-03T20:13:23.104Z,9.85
2023-01-03T20:15:27.785Z,9.63
2023-01-03T20:17:30.314Z,10.18
2023-01-03T20:19:32.858Z,11.27
2023-01-03T20:21:35.463Z,10.15
2023-01-03T20:23:41.387Z,10.25
2023-01-03T20:25:45.736Z,9.98
2023-01-03T20:27:48.273Z,10.88
2023-01-03T20:29:54.772Z,10.38
2023-01-03T20:31:57.397Z,11.00
2023-01-03T20:34:01.033Z,10.98
2023-01-03T20:36:14.844Z,10.63
2023-01-03T20:38:25.187Z,10.30
2023-01-03T20:40:28.184Z,9.63
2023-01-03T20:42:30.696Z,10.93
2023-01-03T20:44:33.221Z,10.40
2023-01-03T20:46:38.692Z,11.02
2023-01-03T20:48:41.501Z,11.27
2023-01-03T20:50:44.926Z,10.45
2023-01-03T20:52:48.486Z,10.45
2023-01-03T20:54:51.075Z,9.90
2023-01-03T20:56:53.611Z,10.27
2023-01-03T20:58:56.147Z,10.50
2023-01-03T21:01:04.977Z,10.50
2023-01-03T21:03:09.807Z,10.43
2023-01-03T21:05:12.524Z,9.60
2023-01-03T21:07:26.860Z,10.27
2023-01-03T21:09:28.459Z,10.73
2023-01-03T21:13:34.619Z,9.95
2023-01-03T21:15:38.021Z,10.70
2023-01-03T21:17:43.396Z,11.27
2023-01-03T21:19:51.014Z,11.82
2023-01-03T21:21:55.306Z,12.05
2023-01-03T21:23:57.988Z,11.40
2023-01-03T21:26:00.639Z,11.25
2023-01-03T21:28:03.992Z,11.25
2023-01-03T21:30:08.998Z,11.32
2023-01-03T21:32:12.579Z,10.15
2023-01-03T21:34:18.098Z,10.35
2023-01-03T21:36:25.816Z,11.07
2023-01-03T21:38:28.325Z,11.30
2023-01-03T21:40:31.099Z,12.57
2023-01-03T21:42:51.296Z,12.35
2023-01-03T21:44:53.960Z,12.90
2023-01-03T21:46:56.497Z,11.73
2023-01-03T21:48:59.128Z,12.05
2023-01-03T21:51:05.266Z,11.55
2023-01-03T21:53:13.364Z,12.30
2023-01-03T21:55:15.991Z,10.93
2023-01-03T21:57:23.152Z,10.90
2023-01-03T21:59:26.175Z,11.10
2023-01-03T22:01:28.884Z,12.63
2023-01-03T22:03:49.248Z,12.50
2023-01-03T22:05:51.846Z,14.52
2023-01-03T22:07:54.474Z,20.42
2023-01-03T22:10:16.064Z,17.25
2023-01-03T22:12:19.782Z,13.48
2023-01-03T22:14:22.382Z,11.70
2023-01-03T22:16:25.777Z,10.55
2023-01-03T22:18:29.434Z,11.75
2023-01-03T22:20:36.481Z,11.30
2023-01-03T22:22:42.133Z,10.45
2023-01-03T22:24:44.842Z,12.60
2023-01-03T22:26:48.711Z,11.07
2023-01-03T22:28:51.274Z,11.75
2023-01-03T22:30:53.788Z,11.00
2023-01-03T22:32:57.193Z,11.52
2023-01-03T22:34:59.822Z,11.13
2023-01-03T22:37:02.366Z,10.88
2023-01-03T22:39:05.206Z,9.75
2023-01-03T22:41:11.462Z,9.90
2023-01-03T22:43:15.655Z,11.00
2023-01-03T22:45:18.406Z,11.52
2023-01-03T22:47:20.946Z,10.52
2023-01-03T22:49:23.551Z,10.13
2023-01-03T22:51:26.133Z,10.75
2023-01-03T22:53:28.687Z,10.63
2023-01-03T22:55:32.381Z,12.85
2023-01-03T22:57:35.183Z,15.25
2023-01-03T22:59:39.144Z,15.95
2023-01-03T23:01:41.823Z,14.93
2023-01-03T23:03:45.569Z,14.13
2023-01-03T23:05:48.154Z,12.93
2023-01-03T23:07:50.688Z,13.07
2023-01-03T23:09:53.218Z,11.63
2023-01-03T23:12:13.199Z,11.82
2023-01-03T23:14:17.921Z,11.82
2023-01-03T23:16:21.879Z,12.45
2023-01-03T23:18:24.453Z,12.23
2023-01-03T23:20:29.591Z,11.73
2023-01-03T23:22:32.194Z,11.32
2023-01-03T23:24:34.985Z,13.65
2023-01-03T23:26:37.546Z,13.65
2023-01-03T23:28:40.082Z,11.30
2023-01-03T23:30:42.722Z,11.45
2023-01-03T23:32:46.795Z,10.65
2023-01-03T23:34:49.353Z,10.05
2023-01-03T23:36:51.986Z,9.32
2023-01-03T23:38:55.368Z,9.77
2023-01-03T23:40:57.947Z,9.52
2023-01-03T23:43:03.009Z,9.25
2023-01-03T23:45:07.180Z,9.40
2023-01-03T23:47:12.097Z,9.38
2023-01-03T23:49:17.129Z,8.48
2023-01-03T23:51:19.653Z,9.68
2023-01-03T23:53:25.146Z,8.80
2023-01-03T23:55:28.210Z,9.07
2023-01-03T23:57:33.600Z,9.10
2023-01-03T23:59:36.149Z,10.30
